Pagina principale
METAR-TAF:

METAR-TAF

Aeroporti :

Aeroporto Internazionale di Salt Lake City

Salt Lake City, Utah, Stati Uniti

latitudine: 40-46-41N, longitudine: 111-58-10W, altezza: 1288 m

Osservazione

Il bollettino è stato emesso 35 minuti fa, alle 07:54 UTC
Vento 14 kt da sud-est
Temperature 21°C
Umidità 56%
Pressione 1023 hPa
Visibilità: 16.1 km
Poco nuvoloso ad un'altezza di 14000 ft

METAR: KSLC 180754Z 14014KT 10SM FEW140 21/12 A3020 RMK AO2 SLP170 T02060122

Ora: 02:29 (08:29 UTC)

Previsione

Il bollettino è stato emesso 2 ore e 42 minuti fa, alle 05:47 UTC
Previsione valida dal 18 alle 06 UTC al 19 alle 12 UTC
Vento 5 kt da sud/sud-est
Visibilità: 10 km
Cielo sereno
A partire da 18 alle 1800 UTC
Vento 7 kt da ovest/nord-ovest
Visibilità: 10 km
Cielo sereno
A partire da 19 alle 0400 UTC
Vento 5 kt da sud/sud-est
Visibilità: 10 km
Cielo sereno

TAF: KSLC 180547Z 1806/1912 16005KT P6SM SKC FM181800 29007KT P6SM SKC FM190400 15005KT P6SM SKC

Osservazioni e previsioni meteorologiche di più di 4000 aeroporti (messaggi METAR e TAF).

Le stazioni disponibili sono rappresentate dai dischi gialli e rossi sulla carta.

Puntare il mouse per vedere il nome della stazione.

Clicca sopra per visualizzare le osservazioni e previsioni meteorologiche.

Per cambiare la mappa : fare clic sui pulsanti verdi con una croce nera per ingrandire, il pulsante verde con un trattino per diminuire, o sulla freccia verde per le mappe adiacenti.


METAR-TAF: